Hamilton, MA (01936)

7:39 AM EDT on July 24, 2016 (GMT -0400)
Sagamore Street | | Change Station

Elev 98 ft 42.63 °N, 70.83 °W | Updated 14 minutes ago

Clear
Clear
66.2 °F
Feels Like 66.2 °F
N
0.0
Wind Variable Wind from NNE

Today
High -- | Low -- °F
--% Chance of Precip.
Yesterday
High -- | Low -- °F
Precip. -- in
Pressure 29.90 in
Visibility 10.0 miles
Clouds Clear
Dew Point 61 °F
Humidity 84%
Rainfall 0.00 in
Snow Depth Not available.
5:27 AM 8:11 PM
Waning Gibbous, 77% visible
METAR KBVY 241053Z 32008KT 10SM CLR 21/17 A2991 RMK AO2 SLP124 T02060167
Pressure 29.90 in
Visibility 10.0 miles
Clouds Clear
Dew Point 61 °F
Humidity 84%
Rainfall 0.00 in
Snow Depth Not available.
5:27 AM 8:11 PM
Waning Gibbous, 77% visible
METAR KBVY 241053Z 32008KT 10SM CLR 21/17 A2991 RMK AO2 SLP124 T02060167

10-Day Weather Forecast

Almanac

Astronomy

Jul. 24, 2016 Rise Set
Actual Time
Civil Twilight
Nautical Twilight
Astronomical Twilight
Moon
Length of Visible Light
Length of Day
Tomorrow will be .
, % of the Moon is Illuminated

Today's Extremes

State Highs State Lows

Community

WunderPhotos

Upload Photos

1,927,048 photos uploaded!

WunderBlog® & News

Nearby

Air Quality

  Air Quality AQ Index Pollutant
Not available.

Snow Depth

Station Depth Elevation

Earthquake Activity

City Distance Mag. Time & Date
Minimum magnitude displayed is 2.5.

Coastal Water Temperatures

Place Temperature

Stations

Nearby Weather Stations

Station Location Temp. Windchill Dew Point Humidity Wind Precip. Elev Updated Type
                   

Watches & Warnings

There are currently no watches in effect.